Time;durP1;ratioP1;P1;durP2;ratioP2;P2;SDS_P1;SDS_P2;PMS_P1;PMS_P2;Temp;Humidity;BMP_temperature;BMP_pressure;BME280_temperature;BME280_humidity;BME280_pressure;Samples;Min_cycle;Max_cycle;Signal;HPM_P1;HPM_P2
2023/03/09 00:02:06;;;;;;;62.80;25.60;;;;;;;0.55;100.00;98534.71;220727;1266;139385;-87
2023/03/09 00:07:07;;;;;;;48.30;23.30;;;;;;;0.56;100.00;98539.20;220249;1266;139796;-85
2023/03/09 00:12:07;;;;;;;50.00;23.10;;;;;;;0.56;100.00;98534.89;220796;1266;139369;-87
2023/03/09 00:17:08;;;;;;;54.00;24.60;;;;;;;0.55;100.00;98540.59;220306;1266;139552;-86
2023/03/09 00:22:08;;;;;;;48.10;20.90;;;;;;;0.51;100.00;98538.73;220858;1266;97934;-88
2023/03/09 00:27:09;;;;;;;49.30;20.80;;;;;;;0.52;100.00;98533.73;220192;1265;139388;-86
2023/03/09 00:32:09;;;;;;;44.00;19.10;;;;;;;0.51;100.00;98523.64;220793;1265;140145;-87
2023/03/09 00:37:09;;;;;;;48.30;22.50;;;;;;;0.50;100.00;98514.11;220152;1266;140476;-88
2023/03/09 00:42:10;;;;;;;46.90;20.80;;;;;;;0.48;100.00;98516.63;220685;1269;140042;-87
2023/03/09 00:47:10;;;;;;;50.60;22.30;;;;;;;0.48;100.00;98514.77;220094;1269;139174;-87
2023/03/09 00:52:11;;;;;;;47.10;19.80;;;;;;;0.47;100.00;98515.14;220845;1265;97910;-85
2023/03/09 00:57:11;;;;;;;46.80;21.00;;;;;;;0.45;100.00;98524.39;220160;1266;139005;-88
2023/03/09 01:02:12;;;;;;;50.50;22.30;;;;;;;0.46;100.00;98523.38;220568;1265;139017;-87
2023/03/09 01:07:13;;;;;;;52.10;23.20;;;;;;;0.46;100.00;98505.39;220307;1265;139466;-86
2023/03/09 01:12:13;;;;;;;52.70;24.30;;;;;;;0.45;100.00;98483.70;220665;1269;139836;-84
2023/03/09 01:17:14;;;;;;;49.90;22.70;;;;;;;0.43;100.00;98475.25;220317;1265;139662;-84
2023/03/09 01:22:14;;;;;;;50.40;20.90;;;;;;;0.43;100.00;98475.23;221071;1266;97921;-86
2023/03/09 01:27:21;;;;;;;53.00;23.20;;;;;;;0.40;100.00;98467.06;220022;1266;139069;-86
2023/03/09 01:32:22;;;;;;;57.50;23.70;;;;;;;0.41;100.00;98455.17;220686;1266;139710;-86
2023/03/09 01:37:30;;;;;;;64.20;26.80;;;;;;;0.40;100.00;98474.42;220099;1266;139470;-88
2023/03/09 01:42:31;;;;;;;58.80;26.00;;;;;;;0.41;100.00;98473.58;220626;1265;139185;-86
2023/03/09 01:47:31;;;;;;;59.90;25.80;;;;;;;0.41;100.00;98468.02;220084;1265;139328;-87
2023/03/09 01:52:33;;;;;;;66.80;25.80;;;;;;;0.40;100.00;98470.39;220824;1266;139241;-88
2023/03/09 01:57:39;;;;;;;52.90;24.90;;;;;;;0.41;100.00;98470.58;220250;1266;139659;-87
2023/03/09 02:02:43;;;;;;;53.80;23.50;;;;;;;0.39;100.00;98473.16;220669;1266;139225;-86
2023/03/09 02:07:48;;;;;;;53.50;22.00;;;;;;;0.38;100.00;98466.66;219962;1267;140895;-86
2023/03/09 02:12:53;;;;;;;51.60;23.30;;;;;;;0.39;100.00;98471.61;220557;1266;140445;-87
2023/03/09 02:17:53;;;;;;;53.90;23.50;;;;;;;0.39;100.00;98482.45;220249;1266;139350;-85
2023/03/09 02:22:54;;;;;;;49.40;21.40;;;;;;;0.40;100.00;98492.65;220782;1269;139207;-86
2023/03/09 02:27:55;;;;;;;54.50;24.10;;;;;;;0.38;100.00;98484.88;220374;1266;139321;-86
2023/03/09 02:33:11;;;;;;;55.20;23.20;;;;;;;0.37;100.00;98489.89;220685;1265;139329;-85
2023/03/09 02:38:16;;;;;;;46.70;21.50;;;;;;;0.37;100.00;98491.44;220187;1266;139063;-87
2023/03/09 02:43:22;;;;;;;49.60;20.90;;;;;;;0.37;100.00;98485.04;220776;1266;139413;-88
2023/03/09 02:48:22;;;;;;;50.90;21.90;;;;;;;0.37;100.00;98485.11;220181;1266;139689;-86
2023/03/09 02:53:23;;;;;;;44.30;20.00;;;;;;;0.39;100.00;98491.70;220737;1266;139419;-86
2023/03/09 02:58:23;;;;;;;50.00;21.50;;;;;;;0.39;100.00;98496.03;220368;1266;139438;-88
2023/03/09 03:03:24;;;;;;;52.40;22.20;;;;;;;0.38;100.00;98490.77;220931;1266;138911;-89
2023/03/09 03:08:25;;;;;;;44.80;20.50;;;;;;;0.36;100.00;98492.73;221151;1270;139813;-87
2023/03/09 03:13:25;;;;;;;48.70;23.50;;;;;;;0.34;100.00;98487.61;220745;1267;139221;-86
2023/03/09 03:18:26;;;;;;;48.40;21.90;;;;;;;0.35;100.00;98495.20;220321;1266;139798;-85
2023/03/09 03:23:26;;;;;;;48.20;21.80;;;;;;;0.37;100.00;98493.69;220678;1266;139635;-84
2023/03/09 03:28:28;;;;;;;50.30;23.20;;;;;;;0.38;100.00;98486.74;220404;1266;139359;-88
2023/03/09 03:33:29;;;;;;;55.10;24.10;;;;;;;0.39;100.00;98485.76;220757;1270;139396;-86
2023/03/09 03:38:29;;;;;;;51.70;25.10;;;;;;;0.39;100.00;98482.11;219985;1265;139712;-84
2023/03/09 03:43:30;;;;;;;49.50;23.30;;;;;;;0.40;100.00;98472.17;220740;1266;139329;-90
2023/03/09 03:48:30;;;;;;;49.50;21.70;;;;;;;0.37;100.00;98471.27;220102;1270;139966;-84
2023/03/09 03:53:31;;;;;;;47.60;23.00;;;;;;;0.37;100.00;98473.59;220830;1266;139559;-87
2023/03/09 03:58:50;;;;;;;44.40;21.40;;;;;;;0.39;100.00;98468.98;214440;1290;636034;-91
2023/03/09 04:03:50;;;;;;;51.10;21.60;;;;;;;0.37;100.00;98472.03;213850;1295;94325;-92
2023/03/09 04:08:51;;;;;;;45.70;20.80;;;;;;;0.36;100.00;98474.35;213204;1296;454818;-92
2023/03/09 04:13:52;;;;;;;36.20;17.40;;;;;;;0.34;100.00;98479.25;214268;1293;138522;-92
2023/03/09 04:18:52;;;;;;;41.70;18.00;;;;;;;0.32;100.00;98472.11;213492;1293;138033;-93
2023/03/09 04:23:53;;;;;;;48.40;20.70;;;;;;;0.30;100.00;98470.76;214258;1296;138252;-92
2023/03/09 04:28:53;;;;;;;37.00;17.10;;;;;;;0.28;100.00;98468.39;215186;1291;139157;-92
2023/03/09 04:33:54;;;;;;;37.20;17.60;;;;;;;0.27;100.00;98464.42;215334;1291;94293;-92
2023/03/09 04:38:54;;;;;;;45.00;20.80;;;;;;;0.26;100.00;98464.70;213561;1294;138724;-92
2023/03/09 04:43:58;;;;;;;34.50;16.30;;;;;;;0.23;100.00;98459.86;214375;1292;137635;-94
2023/03/09 04:49:00;;;;;;;36.50;17.60;;;;;;;0.19;100.00;98460.95;213678;1294;139509;-93
2023/03/09 04:54:00;;;;;;;41.80;17.80;;;;;;;0.19;100.00;98462.41;214443;1294;138623;-92
2023/03/09 04:59:01;;;;;;;28.20;15.00;;;;;;;0.16;100.00;98460.10;214197;1296;138794;-91
2023/03/09 05:04:01;;;;;;;35.90;16.50;;;;;;;0.15;100.00;98458.60;214584;1294;96189;-91
2023/03/09 05:09:04;;;;;;;29.20;15.40;;;;;;;0.12;100.00;98454.45;214054;1293;137769;-92
2023/03/09 05:14:05;;;;;;;33.80;15.60;;;;;;;0.10;100.00;98458.20;213852;1296;137928;-92
2023/03/09 05:19:09;;;;;;;31.00;16.70;;;;;;;0.10;100.00;98457.20;214136;1293;139711;-92
2023/03/09 05:24:10;;;;;;;30.90;16.40;;;;;;;0.08;100.00;98459.23;215681;1296;139371;-90
2023/03/09 05:29:11;;;;;;;32.00;14.10;;;;;;;0.06;100.00;98468.33;213398;1292;138687;-93
2023/03/09 05:34:11;;;;;;;30.60;15.50;;;;;;;0.04;100.00;98470.98;214326;1296;95529;-94
2023/03/09 05:39:12;;;;;;;30.30;15.50;;;;;;;0.05;100.00;98469.45;214097;1292;138529;-92
2023/03/09 05:44:13;;;;;;;37.30;16.60;;;;;;;0.03;100.00;98470.73;214038;1294;138936;-94
2023/03/09 05:49:14;;;;;;;36.80;15.90;;;;;;;0.02;100.00;98468.23;213967;1293;139196;-90
2023/03/09 05:54:16;;;;;;;38.90;18.00;;;;;;;0.02;100.00;98468.92;214647;1291;138488;-93
2023/03/09 05:59:18;;;;;;;31.60;16.10;;;;;;;0.01;100.00;98463.50;213810;1292;139174;-93
2023/03/09 06:04:19;;;;;;;30.20;13.70;;;;;;;0.01;100.00;98464.50;214385;1291;95363;-93
2023/03/09 06:09:20;;;;;;;30.50;15.50;;;;;;;0.01;100.00;98472.23;213509;1294;138340;-93
2023/03/09 06:14:21;;;;;;;32.50;16.30;;;;;;;0.01;100.00;98469.99;216465;1295;137089;-92
2023/03/09 06:19:21;;;;;;;35.50;17.80;;;;;;;0.05;100.00;98472.31;214157;1294;140302;-93
2023/03/09 06:24:22;;;;;;;30.90;17.00;;;;;;;0.07;100.00;98465.02;214253;1292;138578;-92
2023/03/09 06:29:23;;;;;;;34.70;18.20;;;;;;;0.09;100.00;98460.58;213532;1294;138037;-95
2023/03/09 06:34:24;;;;;;;34.80;16.30;;;;;;;0.10;100.00;98470.88;214227;1291;95264;-93
2023/03/09 06:39:24;;;;;;;29.10;14.60;;;;;;;0.11;100.00;98471.44;213837;1294;137826;-94
2023/03/09 06:44:25;;;;;;;32.60;16.50;;;;;;;0.11;100.00;98472.38;214345;1293;138576;-92
2023/03/09 06:49:26;;;;;;;31.00;16.30;;;;;;;0.13;100.00;98469.30;213724;1296;138467;-94
2023/03/09 06:54:26;;;;;;;37.60;18.70;;;;;;;0.15;100.00;98470.82;214268;1293;138767;-93
2023/03/09 06:59:29;;;;;;;32.50;16.50;;;;;;;0.16;100.00;98477.63;213838;1296;138222;-93
2023/03/09 07:04:32;;;;;;;29.40;15.70;;;;;;;0.19;100.00;98485.59;216080;1292;95249;-93
2023/03/09 07:09:33;;;;;;;33.40;16.60;;;;;;;0.20;100.00;98493.50;213900;1291;137710;-92
2023/03/09 07:14:34;;;;;;;34.70;17.00;;;;;;;0.23;100.00;98501.82;214804;1294;138835;-94
2023/03/09 07:19:34;;;;;;;31.30;16.20;;;;;;;0.27;100.00;98500.66;214614;1291;139511;-93
2023/03/09 07:24:37;;;;;;;40.80;19.70;;;;;;;0.28;100.00;98507.12;215041;1297;138788;-93
2023/03/09 07:29:40;;;;;;;35.40;16.40;;;;;;;0.35;100.00;98515.28;214076;1292;138718;-95
2023/03/09 07:34:40;;;;;;;27.60;14.60;;;;;;;0.37;100.00;98522.50;214610;1296;138697;-93
2023/03/09 07:39:41;;;;;;;31.90;14.80;;;;;;;0.38;100.00;98528.73;213817;1296;138892;-92
2023/03/09 07:44:42;;;;;;;30.20;15.30;;;;;;;0.37;100.00;98537.13;214675;1296;138378;-93
2023/03/09 07:49:42;;;;;;;32.90;16.10;;;;;;;0.41;100.00;98547.56;213847;1296;138468;-92
2023/03/09 07:54:43;;;;;;;32.40;15.30;;;;;;;0.46;100.00;98549.90;214991;1294;138249;-93
2023/03/09 07:59:43;;;;;;;31.90;16.20;;;;;;;0.46;100.00;98558.27;214472;1293;139675;-90
2023/03/09 08:04:44;;;;;;;33.90;16.20;;;;;;;0.48;100.00;98564.41;214162;1294;138502;-92
2023/03/09 08:09:45;;;;;;;33.20;16.20;;;;;;;0.48;100.00;98570.83;213637;1294;139560;-91
2023/03/09 08:14:45;;;;;;;35.30;17.30;;;;;;;0.52;100.00;98577.55;213815;1293;138557;-92
2023/03/09 08:19:46;;;;;;;33.40;16.50;;;;;;;0.54;100.00;98579.59;213434;1295;139564;-89
2023/03/09 08:24:46;;;;;;;36.20;18.20;;;;;;;0.54;100.00;98583.25;213745;1293;138502;-91
2023/03/09 08:29:46;;;;;;;34.20;17.70;;;;;;;0.54;100.00;98595.70;213207;1296;138766;-91
2023/03/09 08:34:47;;;;;;;37.10;19.80;;;;;;;0.55;100.00;98608.39;214291;1293;138822;-87
2023/03/09 08:39:50;;;;;;;35.80;18.00;;;;;;;0.55;100.00;98611.95;214047;1296;138241;-87
2023/03/09 08:44:51;;;;;;;38.60;19.00;;;;;;;0.51;100.00;98614.88;214289;1292;138000;-86
2023/03/09 08:49:51;;;;;;;32.90;17.60;;;;;;;0.55;100.00;98609.56;214400;1291;138117;-90
2023/03/09 08:54:52;;;;;;;41.10;20.00;;;;;;;0.59;100.00;98623.33;214243;1294;139308;-88
2023/03/09 08:59:53;;;;;;;36.10;18.20;;;;;;;0.59;100.00;98632.30;213365;1293;140426;-89
2023/03/09 09:04:53;;;;;;;36.70;19.10;;;;;;;0.61;100.00;98637.99;214111;1291;138153;-89
2023/03/09 09:09:54;;;;;;;38.60;19.50;;;;;;;0.62;100.00;98637.23;213617;1295;137994;-90
2023/03/09 09:14:54;;;;;;;36.70;20.40;;;;;;;0.61;100.00;98659.02;214112;1292;138137;-90
2023/03/09 09:19:55;;;;;;;34.20;19.50;;;;;;;0.59;100.00;98666.33;213620;1295;138625;-89
2023/03/09 09:24:55;;;;;;;33.90;19.00;;;;;;;0.67;100.00;98665.73;213857;1295;138113;-90
2023/03/09 09:29:56;;;;;;;39.70;19.10;;;;;;;0.72;100.00;98666.85;213584;1295;139251;-88
2023/03/09 09:34:57;;;;;;;33.90;17.90;;;;;;;0.72;100.00;98677.42;214113;1294;138861;-89
2023/03/09 09:39:58;;;;;;;34.20;19.90;;;;;;;0.70;100.00;98680.40;213754;1294;138297;-88
2023/03/09 09:45:02;;;;;;;39.30;19.40;;;;;;;0.75;100.00;98691.73;213854;1293;138320;-88
2023/03/09 09:50:02;;;;;;;39.30;18.90;;;;;;;0.82;100.00;98693.41;212998;1296;138247;-90
2023/03/09 09:55:03;;;;;;;38.50;21.40;;;;;;;0.87;100.00;98696.08;213641;1293;138429;-89
2023/03/09 10:00:17;;;;;;;36.60;19.60;;;;;;;0.91;100.00;98702.91;213555;1295;139545;-88
2023/03/09 10:05:42;;;;;;;32.80;18.30;;;;;;;0.97;100.00;98702.65;214080;1295;138359;-87
2023/03/09 10:10:44;;;;;;;33.60;18.30;;;;;;;1.06;100.00;98720.16;213321;1297;139528;-89
2023/03/09 10:15:45;;;;;;;32.00;17.70;;;;;;;1.11;100.00;98729.48;213986;1294;95353;-88
2023/03/09 10:20:50;;;;;;;31.20;17.10;;;;;;;1.13;100.00;98738.81;213862;1294;139629;-88
2023/03/09 10:25:54;;;;;;;29.20;15.90;;;;;;;1.08;100.00;98756.14;214116;1293;139358;-88
2023/03/09 10:31:01;;;;;;;27.50;15.50;;;;;;;1.10;100.00;98765.63;214099;1292;138837;-90
2023/03/09 10:36:11;;;;;;;32.70;15.30;;;;;;;1.09;100.00;98774.57;217073;1293;140956;-90
2023/03/09 10:41:21;;;;;;;26.60;14.40;;;;;;;1.07;100.00;98788.67;216817;1293;139946;-88
2023/03/09 10:46:24;;;;;;;26.30;13.20;;;;;;;1.04;100.00;98795.04;213956;1294;139541;-89
2023/03/09 10:51:26;;;;;;;24.70;13.00;;;;;;;0.99;100.00;98801.58;213976;1293;140029;-86
2023/03/09 10:56:29;;;;;;;24.60;13.50;;;;;;;1.04;100.00;98798.29;213588;1294;141306;-87
2023/03/09 11:01:29;;;;;;;18.20;10.40;;;;;;;1.11;100.00;98804.10;213471;1296;139028;-90
2023/03/09 11:06:37;;;;;;;21.30;11.80;;;;;;;1.17;100.00;98816.31;213342;1293;139068;-87
2023/03/09 11:11:38;;;;;;;23.30;11.40;;;;;;;1.14;100.00;98821.56;213634;1293;139121;-87
2023/03/09 11:16:49;;;;;;;20.70;10.90;;;;;;;1.13;100.00;98826.49;213069;1294;139352;-88
2023/03/09 11:21:56;;;;;;;21.40;11.50;;;;;;;1.13;100.00;98832.07;214311;1292;95281;-89
2023/03/09 11:27:04;;;;;;;21.00;11.60;;;;;;;1.15;100.00;98847.23;213202;1296;138283;-90
2023/03/09 11:32:04;;;;;;;20.40;10.60;;;;;;;1.08;100.00;98842.88;213752;1292;138631;-86
2023/03/09 11:37:16;;;;;;;20.90;11.90;;;;;;;1.03;100.00;98856.15;213321;1295;138853;-89
2023/03/09 11:42:24;;;;;;;23.40;12.80;;;;;;;1.00;100.00;98863.36;213910;1293;138193;-89
2023/03/09 11:47:33;;;;;;;21.70;11.40;;;;;;;0.96;100.00;98873.87;213325;1296;138485;-89
2023/03/09 11:52:40;;;;;;;21.00;11.70;;;;;;;0.99;100.00;98874.93;213899;1294;138542;-88
2023/03/09 11:57:46;;;;;;;18.30;10.30;;;;;;;1.02;100.00;98875.88;213198;1296;139313;-89
2023/03/09 12:02:59;;;;;;;21.10;10.90;;;;;;;1.04;100.00;98887.27;217621;1292;138828;-88
2023/03/09 12:08:06;;;;;;;20.20;10.00;;;;;;;1.01;100.00;98877.77;217075;1295;138869;-89
2023/03/09 12:13:16;;;;;;;23.40;11.70;;;;;;;1.03;100.00;98885.31;215367;1292;138113;-88
2023/03/09 12:18:22;;;;;;;21.40;10.80;;;;;;;1.06;100.00;98892.36;213510;1296;138311;-86
2023/03/09 12:23:34;;;;;;;21.70;10.90;;;;;;;1.07;100.00;98900.42;214009;1297;138481;-87
2023/03/09 12:28:36;;;;;;;20.00;10.10;;;;;;;1.08;100.00;98893.34;213250;1296;138303;-88
2023/03/09 12:33:43;;;;;;;14.50;8.10;;;;;;;1.07;100.00;98891.63;213780;1297;96634;-87
2023/03/09 12:38:43;;;;;;;15.90;8.50;;;;;;;1.04;100.00;98881.55;213379;1294;138761;-88
2023/03/09 12:43:47;;;;;;;17.70;8.80;;;;;;;1.04;100.00;98891.85;213757;1292;138677;-87
2023/03/09 12:48:48;;;;;;;17.00;7.60;;;;;;;1.04;100.00;98904.69;213681;1292;138999;-88
2023/03/09 12:54:04;;;;;;;17.20;8.60;;;;;;;1.04;100.00;98913.81;214312;1295;139564;-87
2023/03/09 12:59:09;;;;;;;15.60;8.50;;;;;;;1.08;100.00;98927.08;213545;1298;139375;-86
2023/03/09 13:04:16;;;;;;;16.20;8.40;;;;;;;1.07;100.00;98935.90;214614;1295;96651;-86
2023/03/09 13:09:22;;;;;;;14.90;7.90;;;;;;;1.05;100.00;98937.25;213540;1292;138354;-88
2023/03/09 13:14:25;;;;;;;16.80;8.60;;;;;;;1.07;100.00;98945.33;213630;1298;138093;-88
2023/03/09 13:19:26;;;;;;;17.00;8.10;;;;;;;1.01;100.00;98950.84;213326;1293;138763;-87
2023/03/09 13:24:31;;;;;;;15.40;8.30;;;;;;;0.95;100.00;98953.77;214047;1291;139355;-87
2023/03/09 13:29:34;;;;;;;19.70;9.70;;;;;;;0.90;100.00;98956.67;213376;1293;139150;-86
2023/03/09 13:34:36;;;;;;;15.70;7.10;;;;;;;0.90;100.00;98976.70;213685;1294;97123;-88
2023/03/09 13:39:37;;;;;;;15.90;8.40;;;;;;;0.88;100.00;98980.35;213527;1293;138057;-89
2023/03/09 13:44:44;;;;;;;18.30;9.00;;;;;;;0.87;100.00;98988.75;213766;1295;137990;-88
2023/03/09 13:49:46;;;;;;;22.10;11.60;;;;;;;0.88;100.00;99006.89;213238;1291;138968;-88
2023/03/09 13:54:58;;;;;;;19.70;10.10;;;;;;;0.86;100.00;99009.02;214087;1293;138387;-88
2023/03/09 14:00:03;;;;;;;21.70;11.00;;;;;;;0.87;100.00;99006.40;213461;1292;140035;-88
2023/03/09 14:05:19;;;;;;;28.30;13.40;;;;;;;0.89;100.00;99006.07;213880;1292;138371;-89
2023/03/09 14:10:24;;;;;;;27.10;12.50;;;;;;;0.89;100.00;99002.60;213216;1293;138978;-88
2023/03/09 14:15:26;;;;;;;24.50;11.90;;;;;;;0.88;100.00;98993.04;213621;1294;140725;-88
2023/03/09 14:20:34;;;;;;;25.20;12.40;;;;;;;0.88;100.00;98983.82;213149;1296;138471;-87
2023/03/09 14:25:35;;;;;;;25.20;12.00;;;;;;;0.92;100.00;98977.43;213604;1294;139088;-89
2023/03/09 14:30:43;;;;;;;18.60;8.70;;;;;;;0.95;100.00;98977.83;213328;1292;138720;-87
2023/03/09 14:35:43;;;;;;;25.00;9.80;;;;;;;0.88;100.00;98988.70;213727;1297;138321;-89
2023/03/09 14:40:44;;;;;;;20.30;9.40;;;;;;;0.87;100.00;98988.52;213251;1292;139664;-87
2023/03/09 14:45:44;;;;;;;19.90;9.70;;;;;;;0.86;100.00;98995.33;214088;1292;96610;-88
2023/03/09 14:50:45;;;;;;;25.30;10.00;;;;;;;0.82;100.00;98994.29;213577;1291;138934;-87
2023/03/09 14:55:45;;;;;;;30.90;14.40;;;;;;;0.80;100.00;98990.76;214105;1292;139375;-88
2023/03/09 15:00:46;;;;;;;24.20;10.40;;;;;;;0.77;100.00;98997.41;213531;1291;138980;-88
2023/03/09 15:05:47;;;;;;;26.20;11.20;;;;;;;0.76;100.00;99000.86;214051;1293;138829;-88
2023/03/09 15:10:47;;;;;;;20.10;10.60;;;;;;;0.72;100.00;99020.48;213383;1293;139023;-87
2023/03/09 15:15:48;;;;;;;22.40;11.10;;;;;;;0.73;100.00;99025.36;214016;1296;96511;-88
2023/03/09 15:20:48;;;;;;;19.90;9.50;;;;;;;0.74;100.00;99024.61;213355;1293;139173;-88
2023/03/09 15:25:48;;;;;;;25.60;10.70;;;;;;;0.73;100.00;99022.97;213657;1293;138992;-89
2023/03/09 15:30:49;;;;;;;22.70;10.70;;;;;;;0.73;100.00;99013.47;213210;1293;138386;-88
2023/03/09 15:35:49;;;;;;;23.00;10.00;;;;;;;0.73;100.00;99005.33;214313;1292;138416;-88
2023/03/09 15:40:50;;;;;;;22.80;10.30;;;;;;;0.70;100.00;99019.17;213577;1292;139695;-87
2023/03/09 15:45:50;;;;;;;22.00;8.70;;;;;;;0.70;100.00;99038.36;214302;1292;96614;-89
2023/03/09 15:50:51;;;;;;;21.80;9.90;;;;;;;0.70;100.00;99033.66;213321;1293;138430;-88
2023/03/09 15:56:03;;;;;;;24.30;11.20;;;;;;;0.70;100.00;99023.83;213828;1292;138626;-89
2023/03/09 16:01:23;;;;;;;17.80;9.40;;;;;;;0.68;100.00;99029.49;213325;1294;139456;-89
2023/03/09 16:06:23;;;;;;;21.10;11.90;;;;;;;0.66;100.00;99023.86;213405;1294;138391;-90
2023/03/09 16:11:24;;;;;;;24.30;12.80;;;;;;;0.66;100.00;99015.81;213624;1295;200681;-88
2023/03/09 16:16:24;;;;;;;31.80;14.40;;;;;;;0.65;100.00;99006.27;213490;1291;139075;-88
2023/03/09 16:21:24;;;;;;;21.10;11.10;;;;;;;0.66;100.00;99013.66;213927;1292;139496;-88
2023/03/09 16:26:24;;;;;;;25.10;12.20;;;;;;;0.64;100.00;99023.34;213691;1291;138647;-86
2023/03/09 16:31:27;;;;;;;26.40;13.30;;;;;;;0.64;100.00;99038.34;213891;1294;139388;-88
2023/03/09 16:36:28;;;;;;;21.10;9.80;;;;;;;0.62;100.00;99042.08;213493;1292;138978;-88
2023/03/09 16:41:29;;;;;;;23.10;10.20;;;;;;;0.60;100.00;99052.77;214191;1295;138113;-88
2023/03/09 16:46:29;;;;;;;24.30;13.80;;;;;;;0.57;100.00;99049.30;214205;1291;139268;-89
2023/03/09 16:51:29;;;;;;;56.10;25.20;;;;;;;0.55;100.00;99047.23;214314;1292;138587;-89
2023/03/09 16:56:30;;;;;;;21.30;9.20;;;;;;;0.55;100.00;99052.33;213497;1293;138906;-89
2023/03/09 17:01:31;;;;;;;22.80;11.40;;;;;;;0.54;100.00;99057.95;214098;1291;138222;-89
2023/03/09 17:06:32;;;;;;;30.40;16.30;;;;;;;0.54;100.00;99075.27;213575;1294;138828;-89
2023/03/09 17:11:33;;;;;;;17.90;10.60;;;;;;;0.55;100.00;99076.38;214260;1291;137467;-91
2023/03/09 17:16:37;;;;;;;28.00;15.50;;;;;;;0.52;100.00;99070.18;213831;1294;137970;-90
2023/03/09 17:21:37;;;;;;;22.10;10.30;;;;;;;0.50;100.00;99064.48;214919;1293;96602;-89
2023/03/09 17:26:38;;;;;;;21.40;11.50;;;;;;;0.50;100.00;99061.70;213328;1291;138534;-88
2023/03/09 17:31:39;;;;;;;19.40;9.70;;;;;;;0.50;100.00;99063.32;214051;1292;138343;-90
2023/03/09 17:36:39;;;;;;;22.40;11.10;;;;;;;0.47;100.00;99071.58;213341;1294;140045;-89
2023/03/09 17:41:41;;;;;;;22.50;13.20;;;;;;;0.42;100.00;99069.82;213715;1295;138899;-90
2023/03/09 17:46:41;;;;;;;22.80;12.00;;;;;;;0.39;100.00;99066.31;213001;1290;138993;-89
2023/03/09 17:51:42;;;;;;;23.10;11.90;;;;;;;0.38;100.00;99071.30;213727;1294;96842;-88
2023/03/09 17:56:42;;;;;;;23.10;10.80;;;;;;;0.35;100.00;99071.16;213279;1294;138411;-88
2023/03/09 18:01:42;;;;;;;20.30;10.00;;;;;;;0.37;100.00;99063.16;213508;1293;138539;-89
2023/03/09 18:06:43;;;;;;;20.10;10.30;;;;;;;0.35;100.00;99078.36;213229;1292;138585;-90
2023/03/09 18:11:44;;;;;;;23.50;11.80;;;;;;;0.36;100.00;99091.29;215347;1291;139669;-89
2023/03/09 18:16:44;;;;;;;26.60;13.80;;;;;;;0.37;100.00;99087.53;213384;1291;139301;-90
2023/03/09 18:21:45;;;;;;;22.50;11.60;;;;;;;0.35;100.00;99074.48;213960;1292;97974;-89
2023/03/09 18:26:45;;;;;;;23.90;11.50;;;;;;;0.34;100.00;99077.77;213314;1293;138338;-90
2023/03/09 18:31:49;;;;;;;29.50;14.00;;;;;;;0.35;100.00;99081.77;213613;1293;138497;-90
2023/03/09 18:36:50;;;;;;;36.20;16.00;;;;;;;0.35;100.00;99073.71;213164;1291;139797;-89
2023/03/09 18:41:50;;;;;;;32.20;15.40;;;;;;;0.32;100.00;99066.18;213890;1291;138827;-90
2023/03/09 18:46:50;;;;;;;36.90;14.20;;;;;;;0.31;100.00;99053.58;213483;1294;138996;-90
2023/03/09 18:51:51;;;;;;;34.60;14.50;;;;;;;0.34;100.00;99054.05;213765;1291;96645;-89
2023/03/09 18:56:51;;;;;;;28.40;13.30;;;;;;;0.32;100.00;99056.15;213102;1292;139100;-90
2023/03/09 19:01:52;;;;;;;26.80;12.70;;;;;;;0.32;100.00;99055.73;215453;1291;137252;-90
2023/03/09 19:06:52;;;;;;;29.10;11.50;;;;;;;0.32;100.00;99043.08;213356;1291;138996;-89
2023/03/09 19:11:53;;;;;;;25.90;11.60;;;;;;;0.31;100.00;99042.44;213746;1293;138364;-91
2023/03/09 19:16:53;;;;;;;26.80;13.60;;;;;;;0.34;100.00;99039.29;213113;1293;139631;-90
2023/03/09 19:21:54;;;;;;;28.30;13.60;;;;;;;0.36;100.00;99042.42;213926;1292;96520;-90
2023/03/09 19:26:54;;;;;;;27.60;12.20;;;;;;;0.35;100.00;99034.84;213387;1291;138550;-87
2023/03/09 19:31:55;;;;;;;28.20;13.30;;;;;;;0.35;100.00;99029.17;214003;1291;139012;-91
2023/03/09 19:36:55;;;;;;;28.00;13.40;;;;;;;0.33;100.00;99019.77;213461;1293;138822;-91
2023/03/09 19:41:55;;;;;;;29.30;13.40;;;;;;;0.31;100.00;99024.34;214349;1291;139002;-90
2023/03/09 19:46:56;;;;;;;45.80;20.40;;;;;;;0.29;100.00;99024.12;213726;1291;138501;-89
2023/03/09 19:51:57;;;;;;;37.10;19.00;;;;;;;0.29;100.00;99022.11;215834;1291;96588;-90
2023/03/09 19:56:57;;;;;;;43.10;21.40;;;;;;;0.26;100.00;99015.30;213629;1293;138734;-88
2023/03/09 20:01:58;;;;;;;42.60;26.70;;;;;;;0.26;100.00;99013.84;213992;1291;140043;-89
2023/03/09 20:06:58;;;;;;;102.20;52.30;;;;;;;0.26;100.00;99008.98;213476;1293;139032;-91
2023/03/09 20:11:58;;;;;;;61.20;37.70;;;;;;;0.28;100.00;99008.80;214070;1291;138670;-91
2023/03/09 20:16:59;;;;;;;33.20;19.70;;;;;;;0.26;100.00;99001.88;213536;1292;139612;-89
2023/03/09 20:22:01;;;;;;;35.70;16.00;;;;;;;0.26;100.00;98995.23;214106;1293;96602;-89
2023/03/09 20:27:02;;;;;;;30.50;16.10;;;;;;;0.26;100.00;98987.65;213568;1294;138652;-88
2023/03/09 20:32:05;;;;;;;30.60;15.90;;;;;;;0.25;100.00;98988.61;214263;1293;138285;-87
2023/03/09 20:37:07;;;;;;;35.50;16.50;;;;;;;0.25;100.00;98985.74;213734;1295;139726;-87
2023/03/09 20:42:08;;;;;;;50.20;24.40;;;;;;;0.25;100.00;98977.03;215293;1291;137357;-88
2023/03/09 20:47:08;;;;;;;207.40;101.00;;;;;;;0.28;100.00;98970.06;213545;1294;139446;-89
2023/03/09 20:52:09;;;;;;;88.20;41.40;;;;;;;0.26;100.00;98967.95;214255;1291;96706;-90
2023/03/09 20:57:09;;;;;;;67.20;37.10;;;;;;;0.27;100.00;98969.19;213647;1293;138401;-88
2023/03/09 21:02:10;;;;;;;48.10;22.40;;;;;;;0.29;100.00;98969.49;214206;1291;138217;-87
2023/03/09 21:07:12;;;;;;;41.10;20.30;;;;;;;0.29;100.00;98966.09;213670;1291;139415;-89
2023/03/09 21:12:12;;;;;;;37.40;17.60;;;;;;;0.30;100.00;98964.33;214209;1293;138361;-90
2023/03/09 21:17:12;;;;;;;41.50;19.80;;;;;;;0.28;100.00;98949.67;213841;1290;138402;-89
2023/03/09 21:22:13;;;;;;;39.20;20.00;;;;;;;0.28;100.00;98939.01;214456;1291;96626;-88
2023/03/09 21:27:13;;;;;;;40.10;19.40;;;;;;;0.28;100.00;98930.55;213861;1290;138557;-89
2023/03/09 21:32:13;;;;;;;43.90;22.60;;;;;;;0.27;100.00;98927.16;215015;1289;138638;-90
2023/03/09 21:37:14;;;;;;;46.60;22.20;;;;;;;0.28;100.00;98916.42;214080;1293;139509;-91
2023/03/09 21:42:14;;;;;;;43.20;21.70;;;;;;;0.27;100.00;98911.45;214383;1290;139020;-91
2023/03/09 21:47:17;;;;;;;220.80;87.90;;;;;;;0.29;100.00;98908.19;213685;1291;138829;-91
2023/03/09 21:52:17;;;;;;;107.40;45.80;;;;;;;0.29;100.00;98898.83;214323;1294;98172;-90
2023/03/09 21:57:18;;;;;;;156.00;60.60;;;;;;;0.30;100.00;98891.52;213924;1291;138734;-90
2023/03/09 22:02:20;;;;;;;82.60;36.20;;;;;;;0.32;100.00;98882.14;214501;1294;139387;-90
2023/03/09 22:07:20;;;;;;;73.40;32.20;;;;;;;0.32;100.00;98873.86;213642;1291;138799;-89
2023/03/09 22:12:20;;;;;;;62.90;28.50;;;;;;;0.32;100.00;98865.23;213856;1296;139381;-90
2023/03/09 22:17:21;;;;;;;63.50;28.50;;;;;;;0.32;100.00;98864.43;213400;1292;139220;-89
2023/03/09 22:22:21;;;;;;;71.00;32.70;;;;;;;0.36;100.00;98860.53;214114;1293;96769;-89
2023/03/09 22:27:21;;;;;;;75.80;32.20;;;;;;;0.36;100.00;98851.66;213882;1293;138922;-89
2023/03/09 22:32:22;;;;;;;73.20;31.50;;;;;;;0.37;100.00;98846.78;213852;1293;139279;-89
2023/03/09 22:37:23;;;;;;;71.50;33.20;;;;;;;0.37;100.00;98846.48;213439;1292;138925;-90